This is the latest recevied weather packets stored in our database for station/object VK2XSE. If no packets are shown the sender has not sent any weather packets the latest 10 day(s).
| Time | Temp. | Humidity | Pressure | Rain* | Wind** | Luminosity | Snow |
|---|---|---|---|---|---|---|---|
| 1777762516 | 19.44° C | 75% | 1016.4 hPa | 0 mm | - | 84 W/m² | - |
| 1777761917 | 19.44° C | 77% | 1016.5 hPa | 0.25 mm | - | 80 W/m² | - |
| 1777761317 | 18.89° C | 78% | 1016.5 hPa | 0.25 mm | - | 129 W/m² | - |
| 1777760717 | 18.33° C | 78% | 1016.5 hPa | 0.51 mm | - | 93 W/m² | - |
| 1777760119 | 18.33° C | 78% | 1016.5 hPa | 0.51 mm | - | 37 W/m² | - |
| 1777759519 | 18.89° C | 77% | 1016.5 hPa | 0.51 mm | - | 17 W/m² | - |
| 1777758918 | 18.89° C | 77% | 1016.5 hPa | 0.51 mm | - | 22 W/m² | - |
| 1777758318 | 18.89° C | 77% | 1016.3 hPa | 0.25 mm | - | 26 W/m² | - |
| 1777757718 | 19.44° C | 75% | 1016.4 hPa | 0.25 mm | - | 0 W/m² | - |
| 1777757118 | 20° C | 72% | 1016.4 hPa | 0 mm | - | 0 W/m² | - |
| 1777756518 | 20.56° C | 66% | 1016 hPa | 0 mm | - | 0 W/m² | - |
| 1777755918 | 20.56° C | 64% | 1015.6 hPa | 0 mm | - | 0 W/m² | - |
| 1777755318 | 20° C | 64% | 1015.4 hPa | 0 mm | - | 0 W/m² | - |
| 1777754718 | 20° C | 64% | 1015.4 hPa | 0 mm | - | 0 W/m² | - |
| 1777754118 | 20° C | 65% | 1015.4 hPa | 0 mm | - | 0 W/m² | - |
| 1777753518 | 20° C | 64% | 1015.5 hPa | 0 mm | - | 0 W/m² | - |
| 1777752918 | 20° C | 64% | 1015.2 hPa | 0 mm | - | 0 W/m² | - |
| 1777752318 | 20° C | 64% | 1015.2 hPa | 0 mm | - | 0 W/m² | - |
| 1777751718 | 20° C | 64% | 1015.2 hPa | 0 mm | - | 0 W/m² | - |
| 1777751118 | 20° C | 64% | 1015.3 hPa | 0 mm | - | 0 W/m² | - |
| 1777750518 | 20° C | 65% | 1015.2 hPa | 0 mm | - | 0 W/m² | - |
| 1777749918 | 20° C | 65% | 1015.2 hPa | 0 mm | - | 0 W/m² | - |
| 1777749318 | 20° C | 65% | 1015.2 hPa | 0 mm | - | 0 W/m² | - |
| 1777748718 | 20° C | 65% | 1015.1 hPa | 0 mm | - | 0 W/m² | - |
| 1777748118 | 20° C | 65% | 1015 hPa | 0 mm | - | 0 W/m² | - |
* Rain latest hour (hover to see other rain measurements)
** Current wind speed in m/s (hover to see current wind gust speed)